Home > Products > Valid Products > TAF

000
FTUS43 KABR 181200 AAA
TAFATY
TAF AMD
KATY 181228Z 1812/1912 07006KT P6SM SCT120 BKN250
     FM181700 11009KT P6SM SCT070 BKN090 OVC120
     FM182300 11011KT P6SM -SHRA OVC025
     FM190300 09011KT 4SM SHRA BR OVC015
     FM191000 33022G32KT 6SM -SHRA OVC015=



000
FTUS43 KABR 181200 AAA
TAFABR
TAF AMD
KABR 181228Z 1812/1912 03006KT P6SM VCSH FEW090 BKN120 OVC250
     FM181500 08007KT P6SM BKN080 OVC120
     FM190100 05008KT P6SM -SHRA SCT025 BKN040 OVC060
     FM190500 35015KT 6SM -SHRA OVC025
     FM190800 34025G35KT P6SM -SHRA OVC030=



000
FTUS43 KABR 181200 AAA
TAFPIR
TAF AMD
KPIR 181228Z 1812/1912 04010KT P6SM VCSH BKN060 OVC080
      TEMPO 1812/1814 -SHRA BKN040 OVC060
     FM181800 VRB06KT P6SM -SHRA BKN025 OVC050
     FM182200 36008KT 5SM -SHRA BR OVC015
     FM190300 33026G36KT P6SM -RA OVC025
     FM191000 33027G37KT P6SM OVC035=



000
FTUS43 KABR 181200 AAA
TAFMBG
TAF AMD
KMBG 181228Z 1812/1912 07006KT P6SM OVC090
     FM181500 10006KT P6SM OVC090
     FM190000 02006KT P6SM -SHRA SCT025 BKN040 OVC070
     FM190300 34010KT P6SM -SHRA OVC030
     FM190600 34024G34KT P6SM OVC035=



000
FTUS43 KABR 181100
TAFPIR
TAF
KPIR 181140Z 1812/1912 04010KT P6SM VCSH BKN060 OVC080
      TEMPO 1812/1814 -SHRA BKN040 OVC060
     FM181800 VRB06KT P6SM -SHRA BKN025 OVC050
     FM182200 36008KT 5SM -SHRA BR OVC015
     FM190300 33026G36KT P6SM -RA OVC025=



000
FTUS43 KABR 181100
TAFATY
TAF
KATY 181140Z 1812/1912 VRB05KT P6SM BKN200
     FM181500 11007KT P6SM BKN090
     FM182200 10010KT P6SM VCSH BKN040
     FM190000 11008KT 6SM -SHRA OVC015=



000
FTUS43 KABR 181100
TAFABR
TAF
KABR 181140Z 1812/1912 VRB05KT P6SM BKN200
     FM181500 08007KT P6SM BKN100
     FM182200 09007KT P6SM VCSH BKN050
     FM190100 04008KT P6SM -SHRA OVC025=



000
FTUS43 KABR 181100
TAFMBG
TAF
KMBG 181140Z 1812/1912 07006KT P6SM OVC090
     FM181500 10006KT P6SM OVC090
     FM190000 02006KT P6SM -SHRA SCT025 BKN040 OVC070
     FM190300 29002KT P6SM OVC025=



000
FTUS43 KABR 181100
TAFABR
TAF
KABR 181140Z 1812/1912 VRB05KT P6SM BKN200
     FM181500 08007KT P6SM BKN100
     FM182200 09007KT P6SM VCSH BKN050
     FM190100 04008KT P6SM -SHRA OVC025=



000
FTUS43 KABR 181100
TAFATY
TAF
KATY 181140Z 1812/1912 VRB05KT P6SM BKN200
     FM181500 11007KT P6SM BKN090
     FM182200 10010KT P6SM VCSH BKN040
     FM190000 11008KT 6SM -SHRA OVC015=



000
FTUS43 KABR 181100
TAFPIR
TAF
KPIR 181140Z 1812/1912 04010KT P6SM VCSH BKN060 OVC080
      TEMPO 1812/1814 -SHRA BKN040 OVC060
     FM181800 VRB06KT P6SM -SHRA BKN025 OVC050
     FM182200 36008KT 5SM -SHRA BR OVC015
     FM190300 33026G36KT P6SM -RA OVC025=



000
FTUS43 KABR 181100
TAFMBG
TAF
KMBG 181140Z 1812/1912 07006KT P6SM OVC090
     FM181500 10006KT P6SM OVC090
     FM190000 02006KT P6SM -SHRA SCT025 BKN040 OVC070
     FM190300 29002KT P6SM OVC025=



000
FTUS43 KABR 180600 AAA
TAFPIR
TAF AMD
KPIR 180609Z 1806/1906 VRB06KT P6SM VCSH BKN080 OVC090
      TEMPO 1806/1807 -SHRA BKN060 OVC080
     FM181800 06005KT P6SM VCSH OVC040
     FM182100 02008KT P6SM -SHRA OVC015
     FM190000 36009KT 6SM -RA OVC007=



000
FTUS43 KABR 180600 AAA
TAFPIR
TAF AMD
KPIR 180609Z 1806/1906 VRB06KT P6SM VCSH BKN080 OVC090
      TEMPO 1806/1807 -SHRA BKN060 OVC080
     FM181800 06005KT P6SM VCSH OVC040
     FM182100 02008KT P6SM -SHRA OVC015
     FM190000 36009KT 6SM -RA OVC007=



000
FTUS43 KABR 180500
TAFATY
TAF
KATY 180520Z 1806/1906 VRB05KT P6SM BKN200
     FM181500 11007KT P6SM BKN090
     FM182200 10010KT P6SM VCSH BKN040
     FM190000 11008KT 6SM -SHRA OVC015=



000
FTUS43 KABR 180500
TAFPIR
TAF
KPIR 180520Z 1806/1906 VRB06KT P6SM VCSH BKN080
     FM181800 06005KT P6SM VCSH OVC040
     FM182100 02008KT P6SM -SHRA OVC015
     FM190000 36009KT 6SM -RA OVC007=



000
FTUS43 KABR 180500
TAFMBG
TAF
KMBG 180520Z 1806/1906 VRB05KT P6SM BKN200
     FM181200 13006KT P6SM OVC100
     FM190000 05004KT P6SM -SHRA OVC040
     FM190300 29002KT P6SM OVC025=



000
FTUS43 KABR 180500
TAFABR
TAF
KABR 180520Z 1806/1906 VRB05KT P6SM BKN200
     FM181500 08007KT P6SM BKN100
     FM182200 09007KT P6SM VCSH BKN050
     FM190100 04008KT P6SM -SHRA OVC025=



000
FTUS43 KABR 172300
TAFMBG
TAF
KMBG 172325Z 1800/1824 VRB05KT P6SM BKN200
     FM181200 08007KT P6SM OVC070
     FM181800 09007KT P6SM VCSH OVC050=



000
FTUS43 KABR 172300
TAFATY
TAF
KATY 172325Z 1800/1824 VRB05KT P6SM SCT200
     FM180900 06004KT P6SM BKN070
     FM181800 10011KT P6SM VCSH BKN040=



000
FTUS43 KABR 172300
TAFABR
TAF
KABR 172325Z 1800/1824 VRB05KT P6SM SCT200
     FM181200 06006KT P6SM BKN070
     FM181800 09010KT P6SM VCSH BKN050=



000
FTUS43 KABR 172300
TAFPIR
TAF
KPIR 172325Z 1800/1824 VRB05KT P6SM BKN150
     FM180300 VRB05KT P6SM VCSH OVC080
     FM181500 04010KT P6SM -SHRA OVC040=



000
FTUS43 KABR 172300
TAFABR
TAF
KABR 172325Z 1800/1824 VRB05KT P6SM SCT200
     FM181200 06006KT P6SM BKN070
     FM181800 09010KT P6SM VCSH BKN050=



000
FTUS43 KABR 172300
TAFATY
TAF
KATY 172325Z 1800/1824 VRB05KT P6SM SCT200
     FM180900 06004KT P6SM BKN070
     FM181800 10011KT P6SM VCSH BKN040=



000
FTUS43 KABR 172300
TAFMBG
TAF
KMBG 172325Z 1800/1824 VRB05KT P6SM BKN200
     FM181200 08007KT P6SM OVC070
     FM181800 09007KT P6SM VCSH OVC050=



000
FTUS43 KABR 172300
TAFPIR
TAF
KPIR 172325Z 1800/1824 VRB05KT P6SM BKN150
     FM180300 VRB05KT P6SM VCSH OVC080
     FM181500 04010KT P6SM -SHRA OVC040=



000
FTUS43 KABR 171700
TAFMBG
TAF
KMBG 171720Z 1718/1818 02004KT P6SM SKC
     FM180600 08006KT P6SM BKN100=



000
FTUS43 KABR 171700
TAFPIR
TAF
KPIR 171720Z 1718/1818 02004KT P6SM SKC
     FM180300 06006KT P6SM BKN100
     FM181200 08008KT P6SM VCSH BKN040=



000
FTUS43 KABR 171700
TAFATY
TAF
KATY 171720Z 1718/1818 02004KT P6SM SKC
     FM180600 08006KT P6SM BKN200=



000
FTUS43 KABR 171700
TAFABR
TAF
KABR 171720Z 1718/1818 02004KT P6SM SKC
     FM180600 08006KT P6SM BKN200=



000
FTUS43 KABR 171100
TAFPIR
TAF
KPIR 171131Z 1712/1812 02007KT P6SM FEW070 SCT120 BKN250
     FM171400 05008KT P6SM FEW120 SCT250
     FM172300 09010KT P6SM FEW050 BKN090 OVC150
     FM180600 09006KT P6SM -SHRA BKN050 OVC080=



000
FTUS43 KABR 171100
TAFMBG
TAF
KMBG 171131Z 1712/1812 03007KT P6SM SKC
     FM172000 07007KT P6SM SCT120 BKN250
     FM180600 10007KT P6SM SCT070 BKN100 OVC150=



000
FTUS43 KABR 171100
TAFATY
TAF
KATY 171131Z 1712/1812 02007KT P6SM FEW250
     FM180200 06006KT P6SM BKN100 BKN250=



000
FTUS43 KABR 171100
TAFABR
TAF
KABR 171131Z 1712/1812 02007KT P6SM SKC
     FM180000 07006KT P6SM BKN100 BKN250=



000
FTUS43 KABR 170500
TAFABR
TAF
KABR 170540Z 1706/1806 01007KT P6SM SKC
     FM180000 05006KT P6SM BKN100 BKN250=



000
FTUS43 KABR 170500
TAFMBG
TAF
KMBG 170540Z 1706/1806 01007KT P6SM SKC
     FM172100 06007KT P6SM SCT120 BKN250=



000
FTUS43 KABR 170500
TAFATY
TAF
KATY 170540Z 1706/1806 02007KT P6SM FEW250
     FM180200 05006KT P6SM BKN100 BKN250=



000
FTUS43 KABR 170500
TAFABR
TAF
KABR 170540Z 1706/1806 01007KT P6SM SKC
     FM180000 05006KT P6SM BKN100 BKN250=



000
FTUS43 KABR 170500
TAFATY
TAF
KATY 170540Z 1706/1806 02007KT P6SM FEW250
     FM180200 05006KT P6SM BKN100 BKN250=



000
FTUS43 KABR 170500
TAFPIR
TAF
KPIR 170540Z 1706/1806 01007KT P6SM FEW070 SCT120 BKN250
     FM171400 05008KT P6SM FEW120 SCT250
     FM180000 06010KT P6SM FEW050 BKN090 OVC150=



000
FTUS43 KABR 170500
TAFMBG
TAF
KMBG 170540Z 1706/1806 01007KT P6SM SKC
     FM172100 06007KT P6SM SCT120 BKN250=



000
FTUS43 KABR 170500
TAFPIR
TAF
KPIR 170540Z 1706/1806 01007KT P6SM FEW070 SCT120 BKN250
     FM171400 05008KT P6SM FEW120 SCT250
     FM180000 06010KT P6SM FEW050 BKN090 OVC150=



000
FTUS43 KABR 162300
TAFATY
TAF
KATY 162323Z 1700/1724 36007KT P6SM FEW060 SCT250=



000
FTUS43 KABR 162300
TAFABR
TAF
KABR 162323Z 1700/1724 01008KT P6SM FEW250=



000
FTUS43 KABR 162300
TAFMBG
TAF
KMBG 162323Z 1700/1724 01008KT P6SM FEW070 FEW250=



000
FTUS43 KABR 162300
TAFPIR
TAF
KPIR 162323Z 1700/1724 01010KT P6SM SCT070 BKN150=



000
FTUS43 KABR 161700
TAFATY
TAF
KATY 161720Z 1618/1718 36006KT P6SM SCT060=



000
FTUS43 KABR 161700
TAFABR
TAF
KABR 161720Z 1618/1718 36006KT P6SM BKN250=



000
FTUS43 KABR 161700
TAFMBG
TAF
KMBG 161720Z 1618/1718 36006KT P6SM SCT100=



000
FTUS43 KABR 161700
TAFPIR
TAF
KPIR 161720Z 1618/1718 36006KT P6SM SCT100=



000
FTUS43 KABR 161700
TAFABR
TAF
KABR 161720Z 1618/1718 36006KT P6SM BKN250=



000
FTUS43 KABR 161700
TAFATY
TAF
KATY 161720Z 1618/1718 36006KT P6SM SCT060=



000
FTUS43 KABR 161700
TAFPIR
TAF
KPIR 161720Z 1618/1718 36006KT P6SM SCT100=



000
FTUS43 KABR 161700
TAFMBG
TAF
KMBG 161720Z 1618/1718 36006KT P6SM SCT100=



000
FTUS43 KABR 161100
TAFMBG
TAF
KMBG 161125Z 1612/1712 VRB05KT P6SM OVC100
     FM161800 36010KT P6SM OVC100
     FM170400 VRB05KT P6SM SCT250=



000
FTUS43 KABR 161100
TAFABR
TAF
KABR 161125Z 1612/1712 VRB05KT P6SM OVC060
     FM161700 36010KT P6SM BKN100
     FM170400 VRB05KT P6SM SCT250=



000
FTUS43 KABR 161100
TAFATY
TAF
KATY 161125Z 1612/1712 VRB05KT P6SM OVC060
     FM161900 33007KT P6SM BKN100
     FM170400 VRB05KT P6SM SCT250=



000
FTUS43 KABR 161100
TAFPIR
TAF
KPIR 161125Z 1612/1712 VRB05KT P6SM OVC080
     FM161800 35009KT P6SM OVC100
     FM170200 03007KT P6SM OVC100=



000
FTUS43 KABR 161100
TAFMBG
TAF
KMBG 161125Z 1612/1712 VRB05KT P6SM OVC100
     FM161800 36010KT P6SM OVC100
     FM170400 VRB05KT P6SM SCT250=



000
FTUS43 KABR 161100
TAFABR
TAF
KABR 161125Z 1612/1712 VRB05KT P6SM OVC060
     FM161700 36010KT P6SM BKN100
     FM170400 VRB05KT P6SM SCT250=



000
FTUS43 KABR 161100
TAFATY
TAF
KATY 161125Z 1612/1712 VRB05KT P6SM OVC060
     FM161900 33007KT P6SM BKN100
     FM170400 VRB05KT P6SM SCT250=



000
FTUS43 KABR 161100
TAFPIR
TAF
KPIR 161125Z 1612/1712 VRB05KT P6SM OVC080
     FM161800 35009KT P6SM OVC100
     FM170200 03007KT P6SM OVC100=



000
FTUS43 KABR 160900 AAB
TAFATY
TAF AMD
KATY 160937Z 1610/1706 17008KT P6SM OVC040
     FM161800 33007KT P6SM BKN050=



000
FTUS43 KABR 160700 AAA
TAFATY
TAF AMD
KATY 160751Z 1608/1706 18015KT P6SM BKN025 OVC040
     FM161100 19006KT P6SM OVC025
     FM161800 33007KT P6SM BKN050=



000
FTUS43 KABR 160500
TAFABR
TAF
KABR 160528Z 1606/1706 17008KT P6SM OVC050 WS011/17040KT
     FM161200 VRB05KT P6SM OVC025
     FM161700 36011KT P6SM BKN040=



000
FTUS43 KABR 160500
TAFPIR
TAF
KPIR 160528Z 1606/1706 14011KT P6SM BKN080
     FM161000 VRB05KT P6SM BKN035 BKN150
     FM161800 36011KT P6SM BKN050=



000
FTUS43 KABR 160500
TAFMBG
TAF
KMBG 160528Z 1606/1706 13010KT P6SM BKN080
     FM161600 36011G17KT P6SM SCT050=



000
FTUS43 KABR 160500
TAFATY
TAF
KATY 160528Z 1606/1706 17011KT P6SM OVC040
     FM161100 19006KT P6SM OVC025
     FM161800 33007KT P6SM BKN050=



000
FTUS43 KABR 160500
TAFPIR
TAF
KPIR 160528Z 1606/1706 14011KT P6SM BKN080
     FM161000 VRB05KT P6SM BKN035 BKN150
     FM161800 36011KT P6SM BKN050=



000
FTUS43 KABR 160500
TAFMBG
TAF
KMBG 160528Z 1606/1706 13010KT P6SM BKN080
     FM161600 36011G17KT P6SM SCT050=



000
FTUS43 KABR 160500
TAFATY
TAF
KATY 160528Z 1606/1706 17011KT P6SM OVC040
     FM161100 19006KT P6SM OVC025
     FM161800 33007KT P6SM BKN050=



000
FTUS43 KABR 160500
TAFABR
TAF
KABR 160528Z 1606/1706 17008KT P6SM OVC050 WS011/17040KT
     FM161200 VRB05KT P6SM OVC025
     FM161700 36011KT P6SM BKN040=



000
FTUS43 KABR 152300
TAFMBG
TAF
KMBG 152338Z 1600/1624 15016KT P6SM OVC080
     FM160200 14009KT P6SM BKN050
     FM161000 36006KT P6SM OVC025
     FM161600 36011G17KT P6SM BKN040=



000
FTUS43 KABR 152300
TAFATY
TAF
KATY 152338Z 1600/1624 15018G26KT P6SM OVC060
     FM160300 16015KT P6SM OVC050
     FM160900 18007KT P6SM OVC020
     FM161800 VRB05KT P6SM BKN050=



000
FTUS43 KABR 152300
TAFABR
TAF
KABR 152338Z 1600/1624 16022G32KT P6SM BKN060
     FM160300 16015KT P6SM OVC050
     FM160600 18007KT P6SM OVC035
     FM161400 VRB06KT P6SM OVC025
     FM161700 36009KT P6SM BKN040=



000
FTUS43 KABR 152300
TAFPIR
TAF
KPIR 152338Z 1600/1624 13015G22KT P6SM BKN060
     FM160200 16014KT P6SM BKN050
     FM160500 12006KT P6SM OVC035
     FM161200 01006KT P6SM OVC015
     FM161800 36008KT P6SM BKN040=



000
FTUS43 KABR 152200 AAA
TAFPIR
TAF AMD
KPIR 152208Z 1522/1618 14017G25KT P6SM BKN060
     FM160200 16014KT P6SM BKN070
     FM160500 VRB04KT P6SM OVC035
     FM161200 36006KT P6SM OVC015=



000
FTUS43 KABR 152200 AAA
TAFABR
TAF AMD
KABR 152206Z 1522/1618 17024G34KT P6SM BKN060
     FM160200 16015KT P6SM BKN070
     FM160500 18007KT P6SM OVC035
     FM161400 33006KT P6SM OVC015=



000
FTUS43 KABR 152200 AAA
TAFATY
TAF AMD
KATY 152205Z 1522/1618 16025G35KT P6SM OVC060
     FM160200 17017KT P6SM OVC040
     FM160800 18009KT P6SM OVC025
     FM161500 VRB03KT P6SM OVC010=



000
FTUS43 KABR 151700
TAFATY
TAF
KATY 151723Z 1518/1618 18025G35KT P6SM BKN070
     FM160200 17017KT P6SM OVC040
     FM160800 18009KT P6SM OVC025
     FM161500 VRB03KT P6SM OVC010=



000
FTUS43 KABR 151700
TAFABR
TAF
KABR 151723Z 1518/1618 19020G30KT P6SM SCT250
     FM152300 17015KT P6SM BKN070
     FM160500 18007KT P6SM OVC035
     FM161400 33006KT P6SM OVC015=



000
FTUS43 KABR 151700
TAFMBG
TAF
KMBG 151723Z 1518/1618 18016G24KT P6SM SCT250
     FM160000 13010KT P6SM BKN070
     FM160500 VRB05KT P6SM OVC035
     FM161000 36006KT P6SM OVC015=



000
FTUS43 KABR 151700
TAFPIR
TAF
KPIR 151723Z 1518/1618 18017G25KT P6SM SCT250
     FM152200 16014KT P6SM BKN070
     FM160500 VRB04KT P6SM OVC035
     FM161200 36006KT P6SM OVC015=



000
FTUS43 KABR 151500 AAA
TAFPIR
TAF AMD
KPIR 151515Z 1515/1612 15016KT P6SM SKC
     FM160000 13010KT P6SM OVC050
     FM160500 VRB05KT P6SM OVC050=



000
FTUS43 KABR 151500 AAA
TAFPIR
TAF AMD
KPIR 151515Z 1515/1612 15016KT P6SM SKC
     FM160000 13010KT P6SM OVC050
     FM160500 VRB05KT P6SM OVC050=



    US Dept of Commerce
    National Oceanic and Atmospheric Administration
    National Weather Service
    1325 East West Highway
    Silver Spring, MD 20910
    Page Author: NWS Internet Services Team
Disclaimer
Information Quality
Credits
Glossary
Privacy Policy
Freedom of Information Act (FOIA)
About Us
Career Opportunities